sensor_id;sensor_type;location;lat;lon;timestamp;P1;durP1;ratioP1;P2;durP2;ratioP2
65755;SDS011;69208;47.502;18.940;2023-08-17T00:00:08;12.43;;;9.77;;
65755;SDS011;69208;47.502;18.940;2023-08-17T00:01:12;11.50;;;9.15;;
65755;SDS011;69208;47.502;18.940;2023-08-17T00:02:15;15.80;;;9.73;;
65755;SDS011;69208;47.502;18.940;2023-08-17T00:03:18;12.20;;;10.02;;
65755;SDS011;69208;47.502;18.940;2023-08-17T00:04:22;11.25;;;9.07;;
65755;SDS011;69208;47.502;18.940;2023-08-17T00:05:25;15.02;;;9.63;;
65755;SDS011;69208;47.502;18.940;2023-08-17T00:06:29;11.50;;;9.65;;
65755;SDS011;69208;47.502;18.940;2023-08-17T00:07:32;12.70;;;9.75;;
65755;SDS011;69208;47.502;18.940;2023-08-17T00:08:36;11.88;;;9.35;;
65755;SDS011;69208;47.502;18.940;2023-08-17T00:09:39;12.43;;;9.65;;
65755;SDS011;69208;47.502;18.940;2023-08-17T00:10:42;11.52;;;9.00;;
65755;SDS011;69208;47.502;18.940;2023-08-17T00:11:45;12.37;;;9.30;;
65755;SDS011;69208;47.502;18.940;2023-08-17T00:12:48;13.20;;;9.20;;
65755;SDS011;69208;47.502;18.940;2023-08-17T00:13:51;12.95;;;9.73;;
65755;SDS011;69208;47.502;18.940;2023-08-17T00:14:54;10.68;;;9.02;;
65755;SDS011;69208;47.502;18.940;2023-08-17T00:15:57;13.07;;;9.60;;
65755;SDS011;69208;47.502;18.940;2023-08-17T00:17:00;11.65;;;9.43;;
65755;SDS011;69208;47.502;18.940;2023-08-17T00:18:03;12.65;;;9.70;;
65755;SDS011;69208;47.502;18.940;2023-08-17T00:19:06;12.45;;;9.20;;
65755;SDS011;69208;47.502;18.940;2023-08-17T00:20:10;13.95;;;9.38;;
65755;SDS011;69208;47.502;18.940;2023-08-17T00:21:13;13.43;;;9.90;;
65755;SDS011;69208;47.502;18.940;2023-08-17T00:22:16;11.95;;;9.32;;
65755;SDS011;69208;47.502;18.940;2023-08-17T00:23:19;13.48;;;9.55;;
65755;SDS011;69208;47.502;18.940;2023-08-17T00:24:23;15.07;;;10.13;;
65755;SDS011;69208;47.502;18.940;2023-08-17T00:25:26;15.23;;;9.77;;
65755;SDS011;69208;47.502;18.940;2023-08-17T00:26:29;12.23;;;8.90;;
65755;SDS011;69208;47.502;18.940;2023-08-17T00:27:32;15.82;;;9.73;;
65755;SDS011;69208;47.502;18.940;2023-08-17T00:28:35;11.20;;;9.65;;
65755;SDS011;69208;47.502;18.940;2023-08-17T00:29:39;12.15;;;9.40;;
65755;SDS011;69208;47.502;18.940;2023-08-17T00:30:42;12.13;;;9.80;;
65755;SDS011;69208;47.502;18.940;2023-08-17T00:31:45;12.05;;;9.68;;
65755;SDS011;69208;47.502;18.940;2023-08-17T00:32:48;11.32;;;9.77;;
65755;SDS011;69208;47.502;18.940;2023-08-17T00:33:51;12.52;;;9.73;;
65755;SDS011;69208;47.502;18.940;2023-08-17T00:34:53;11.98;;;8.75;;
65755;SDS011;69208;47.502;18.940;2023-08-17T00:35:56;15.27;;;9.75;;
65755;SDS011;69208;47.502;18.940;2023-08-17T00:36:59;13.30;;;9.10;;
65755;SDS011;69208;47.502;18.940;2023-08-17T00:38:02;12.45;;;9.80;;
65755;SDS011;69208;47.502;18.940;2023-08-17T00:39:06;17.65;;;9.82;;
65755;SDS011;69208;47.502;18.940;2023-08-17T00:40:09;10.95;;;9.05;;
65755;SDS011;69208;47.502;18.940;2023-08-17T00:41:12;12.05;;;9.18;;
65755;SDS011;69208;47.502;18.940;2023-08-17T00:42:15;10.70;;;9.60;;
65755;SDS011;69208;47.502;18.940;2023-08-17T00:43:18;13.80;;;9.63;;
65755;SDS011;69208;47.502;18.940;2023-08-17T00:44:21;13.13;;;9.68;;
65755;SDS011;69208;47.502;18.940;2023-08-17T00:45:24;16.10;;;9.45;;
65755;SDS011;69208;47.502;18.940;2023-08-17T00:46:29;14.70;;;10.30;;
65755;SDS011;69208;47.502;18.940;2023-08-17T00:47:32;15.98;;;9.93;;
65755;SDS011;69208;47.502;18.940;2023-08-17T00:48:36;14.73;;;10.10;;
65755;SDS011;69208;47.502;18.940;2023-08-17T00:49:39;11.18;;;9.65;;
65755;SDS011;69208;47.502;18.940;2023-08-17T00:50:42;12.43;;;9.43;;
65755;SDS011;69208;47.502;18.940;2023-08-17T00:51:49;11.68;;;9.27;;
65755;SDS011;69208;47.502;18.940;2023-08-17T00:52:52;14.60;;;10.15;;
65755;SDS011;69208;47.502;18.940;2023-08-17T00:53:57;14.93;;;9.65;;
65755;SDS011;69208;47.502;18.940;2023-08-17T00:55:02;11.50;;;9.40;;
65755;SDS011;69208;47.502;18.940;2023-08-17T00:56:06;12.20;;;9.70;;
65755;SDS011;69208;47.502;18.940;2023-08-17T00:57:10;13.15;;;9.32;;
65755;SDS011;69208;47.502;18.940;2023-08-17T00:58:13;14.00;;;9.73;;
65755;SDS011;69208;47.502;18.940;2023-08-17T00:59:16;11.43;;;9.88;;
65755;SDS011;69208;47.502;18.940;2023-08-17T01:00:20;13.68;;;9.90;;
65755;SDS011;69208;47.502;18.940;2023-08-17T01:01:23;17.73;;;9.48;;
65755;SDS011;69208;47.502;18.940;2023-08-17T01:02:26;16.02;;;9.88;;
65755;SDS011;69208;47.502;18.940;2023-08-17T01:03:29;12.32;;;9.70;;
65755;SDS011;69208;47.502;18.940;2023-08-17T01:04:33;30.15;;;9.80;;
65755;SDS011;69208;47.502;18.940;2023-08-17T01:05:36;13.80;;;9.63;;
65755;SDS011;69208;47.502;18.940;2023-08-17T01:06:40;13.98;;;9.73;;
65755;SDS011;69208;47.502;18.940;2023-08-17T01:07:43;15.25;;;9.52;;
65755;SDS011;69208;47.502;18.940;2023-08-17T01:08:46;14.23;;;9.32;;
65755;SDS011;69208;47.502;18.940;2023-08-17T01:09:49;13.27;;;9.70;;
65755;SDS011;69208;47.502;18.940;2023-08-17T01:10:57;18.52;;;9.98;;
65755;SDS011;69208;47.502;18.940;2023-08-17T01:13:35;11.25;;;9.25;;
65755;SDS011;69208;47.502;18.940;2023-08-17T01:16:21;10.90;;;9.35;;
65755;SDS011;69208;47.502;18.940;2023-08-17T01:17:33;14.15;;;10.05;;
65755;SDS011;69208;47.502;18.940;2023-08-17T01:18:48;13.65;;;9.85;;
65755;SDS011;69208;47.502;18.940;2023-08-17T01:19:54;16.80;;;9.45;;
65755;SDS011;69208;47.502;18.940;2023-08-17T01:20:59;12.50;;;9.18;;
65755;SDS011;69208;47.502;18.940;2023-08-17T01:22:04;11.40;;;9.45;;
65755;SDS011;69208;47.502;18.940;2023-08-17T01:23:09;11.70;;;9.50;;
65755;SDS011;69208;47.502;18.940;2023-08-17T01:24:12;12.98;;;9.50;;
65755;SDS011;69208;47.502;18.940;2023-08-17T01:25:15;10.15;;;9.00;;
65755;SDS011;69208;47.502;18.940;2023-08-17T01:26:18;11.80;;;9.23;;
65755;SDS011;69208;47.502;18.940;2023-08-17T01:27:21;12.50;;;9.57;;
65755;SDS011;69208;47.502;18.940;2023-08-17T01:28:25;11.63;;;9.38;;
65755;SDS011;69208;47.502;18.940;2023-08-17T01:29:28;11.82;;;9.77;;
65755;SDS011;69208;47.502;18.940;2023-08-17T01:30:37;12.60;;;9.15;;
65755;SDS011;69208;47.502;18.940;2023-08-17T01:34:40;10.52;;;9.32;;
65755;SDS011;69208;47.502;18.940;2023-08-17T01:35:58;11.45;;;9.02;;
65755;SDS011;69208;47.502;18.940;2023-08-17T01:37:31;11.70;;;9.45;;
65755;SDS011;69208;47.502;18.940;2023-08-17T01:38:36;14.85;;;9.05;;
65755;SDS011;69208;47.502;18.940;2023-08-17T01:39:43;11.82;;;8.93;;
65755;SDS011;69208;47.502;18.940;2023-08-17T01:40:48;12.02;;;8.75;;
65755;SDS011;69208;47.502;18.940;2023-08-17T01:41:52;15.40;;;8.63;;
65755;SDS011;69208;47.502;18.940;2023-08-17T01:42:57;15.48;;;9.18;;
65755;SDS011;69208;47.502;18.940;2023-08-17T01:44:00;14.23;;;9.18;;
65755;SDS011;69208;47.502;18.940;2023-08-17T01:45:04;12.30;;;9.18;;
65755;SDS011;69208;47.502;18.940;2023-08-17T01:46:08;12.73;;;9.00;;
65755;SDS011;69208;47.502;18.940;2023-08-17T01:47:11;11.55;;;8.48;;
65755;SDS011;69208;47.502;18.940;2023-08-17T01:48:14;13.60;;;9.50;;
65755;SDS011;69208;47.502;18.940;2023-08-17T01:49:17;13.20;;;8.93;;
65755;SDS011;69208;47.502;18.940;2023-08-17T01:50:20;11.18;;;9.13;;
65755;SDS011;69208;47.502;18.940;2023-08-17T01:51:23;20.35;;;9.13;;
65755;SDS011;69208;47.502;18.940;2023-08-17T01:52:27;13.80;;;8.52;;
65755;SDS011;69208;47.502;18.940;2023-08-17T01:53:31;15.25;;;9.27;;
65755;SDS011;69208;47.502;18.940;2023-08-17T01:54:34;10.57;;;8.68;;
65755;SDS011;69208;47.502;18.940;2023-08-17T01:55:37;13.40;;;8.80;;
65755;SDS011;69208;47.502;18.940;2023-08-17T01:56:41;14.25;;;9.50;;
65755;SDS011;69208;47.502;18.940;2023-08-17T01:57:43;11.63;;;8.93;;
65755;SDS011;69208;47.502;18.940;2023-08-17T01:58:46;12.85;;;8.93;;
65755;SDS011;69208;47.502;18.940;2023-08-17T01:59:49;11.60;;;9.15;;
65755;SDS011;69208;47.502;18.940;2023-08-17T02:00:52;10.52;;;9.40;;
65755;SDS011;69208;47.502;18.940;2023-08-17T02:01:55;12.40;;;8.77;;
65755;SDS011;69208;47.502;18.940;2023-08-17T02:02:58;11.65;;;9.10;;
65755;SDS011;69208;47.502;18.940;2023-08-17T02:04:01;10.27;;;8.95;;
65755;SDS011;69208;47.502;18.940;2023-08-17T02:05:06;10.68;;;8.80;;
65755;SDS011;69208;47.502;18.940;2023-08-17T02:06:09;11.77;;;9.05;;
65755;SDS011;69208;47.502;18.940;2023-08-17T02:07:12;11.27;;;8.15;;
65755;SDS011;69208;47.502;18.940;2023-08-17T02:08:15;13.57;;;8.85;;
65755;SDS011;69208;47.502;18.940;2023-08-17T02:09:18;9.98;;;8.95;;
65755;SDS011;69208;47.502;18.940;2023-08-17T02:10:21;11.02;;;8.57;;
65755;SDS011;69208;47.502;18.940;2023-08-17T02:11:24;10.27;;;8.35;;
65755;SDS011;69208;47.502;18.940;2023-08-17T02:12:27;10.48;;;8.20;;
65755;SDS011;69208;47.502;18.940;2023-08-17T02:13:30;10.70;;;8.65;;
65755;SDS011;69208;47.502;18.940;2023-08-17T02:14:32;18.25;;;8.00;;
65755;SDS011;69208;47.502;18.940;2023-08-17T02:15:39;11.38;;;8.05;;
65755;SDS011;69208;47.502;18.940;2023-08-17T02:16:42;10.23;;;8.00;;
65755;SDS011;69208;47.502;18.940;2023-08-17T02:17:45;10.57;;;7.87;;
65755;SDS011;69208;47.502;18.940;2023-08-17T02:18:48;10.93;;;7.35;;
65755;SDS011;69208;47.502;18.940;2023-08-17T02:19:51;10.77;;;7.70;;
65755;SDS011;69208;47.502;18.940;2023-08-17T02:20:54;12.60;;;7.72;;
65755;SDS011;69208;47.502;18.940;2023-08-17T02:21:57;11.07;;;8.05;;
65755;SDS011;69208;47.502;18.940;2023-08-17T02:23:01;11.63;;;7.70;;
65755;SDS011;69208;47.502;18.940;2023-08-17T02:24:04;14.40;;;8.23;;
65755;SDS011;69208;47.502;18.940;2023-08-17T02:25:07;12.48;;;8.18;;
65755;SDS011;69208;47.502;18.940;2023-08-17T02:26:11;14.40;;;7.87;;
65755;SDS011;69208;47.502;18.940;2023-08-17T02:27:14;13.52;;;7.90;;
65755;SDS011;69208;47.502;18.940;2023-08-17T02:28:17;11.05;;;7.68;;
65755;SDS011;69208;47.502;18.940;2023-08-17T02:29:20;11.85;;;7.75;;
65755;SDS011;69208;47.502;18.940;2023-08-17T02:30:23;10.95;;;7.53;;
65755;SDS011;69208;47.502;18.940;2023-08-17T02:31:26;16.37;;;8.02;;
65755;SDS011;69208;47.502;18.940;2023-08-17T02:32:29;10.13;;;7.78;;
65755;SDS011;69208;47.502;18.940;2023-08-17T02:33:32;9.63;;;7.60;;
65755;SDS011;69208;47.502;18.940;2023-08-17T02:34:36;14.23;;;8.50;;
65755;SDS011;69208;47.502;18.940;2023-08-17T02:35:38;9.40;;;6.97;;
65755;SDS011;69208;47.502;18.940;2023-08-17T02:36:42;9.10;;;8.00;;
65755;SDS011;69208;47.502;18.940;2023-08-17T02:37:44;10.55;;;6.97;;
65755;SDS011;69208;47.502;18.940;2023-08-17T02:38:47;14.25;;;7.57;;
65755;SDS011;69208;47.502;18.940;2023-08-17T02:39:50;9.00;;;7.37;;
65755;SDS011;69208;47.502;18.940;2023-08-17T02:40:54;11.75;;;7.00;;
65755;SDS011;69208;47.502;18.940;2023-08-17T02:41:56;10.20;;;7.47;;
65755;SDS011;69208;47.502;18.940;2023-08-17T02:42:59;13.60;;;7.40;;
65755;SDS011;69208;47.502;18.940;2023-08-17T02:44:03;8.82;;;7.53;;
65755;SDS011;69208;47.502;18.940;2023-08-17T02:45:06;10.30;;;7.40;;
65755;SDS011;69208;47.502;18.940;2023-08-17T02:46:11;14.18;;;7.93;;
65755;SDS011;69208;47.502;18.940;2023-08-17T02:47:14;11.40;;;7.72;;
65755;SDS011;69208;47.502;18.940;2023-08-17T02:48:16;10.77;;;7.47;;
65755;SDS011;69208;47.502;18.940;2023-08-17T02:49:20;10.30;;;7.57;;
65755;SDS011;69208;47.502;18.940;2023-08-17T02:50:23;8.57;;;7.22;;
65755;SDS011;69208;47.502;18.940;2023-08-17T02:51:26;11.77;;;8.18;;
65755;SDS011;69208;47.502;18.940;2023-08-17T02:52:29;11.05;;;8.00;;
65755;SDS011;69208;47.502;18.940;2023-08-17T02:53:32;11.12;;;8.30;;
65755;SDS011;69208;47.502;18.940;2023-08-17T02:54:35;12.80;;;7.60;;
65755;SDS011;69208;47.502;18.940;2023-08-17T02:55:38;15.82;;;7.75;;
65755;SDS011;69208;47.502;18.940;2023-08-17T02:56:41;9.63;;;7.12;;
65755;SDS011;69208;47.502;18.940;2023-08-17T02:57:44;9.02;;;6.80;;
65755;SDS011;69208;47.502;18.940;2023-08-17T02:58:48;10.70;;;7.10;;
65755;SDS011;69208;47.502;18.940;2023-08-17T02:59:50;11.85;;;7.05;;
65755;SDS011;69208;47.502;18.940;2023-08-17T03:00:54;12.07;;;7.32;;
65755;SDS011;69208;47.502;18.940;2023-08-17T03:01:57;14.63;;;7.75;;
65755;SDS011;69208;47.502;18.940;2023-08-17T03:03:00;16.87;;;7.50;;
65755;SDS011;69208;47.502;18.940;2023-08-17T03:04:03;14.18;;;7.22;;
65755;SDS011;69208;47.502;18.940;2023-08-17T03:05:06;16.48;;;7.95;;
65755;SDS011;69208;47.502;18.940;2023-08-17T03:06:09;15.00;;;7.40;;
65755;SDS011;69208;47.502;18.940;2023-08-17T03:07:12;13.20;;;7.25;;
65755;SDS011;69208;47.502;18.940;2023-08-17T03:08:15;9.48;;;6.57;;
65755;SDS011;69208;47.502;18.940;2023-08-17T03:09:18;9.10;;;6.97;;
65755;SDS011;69208;47.502;18.940;2023-08-17T03:10:21;8.73;;;6.50;;
65755;SDS011;69208;47.502;18.940;2023-08-17T03:11:27;14.27;;;6.90;;
65755;SDS011;69208;47.502;18.940;2023-08-17T03:12:30;11.80;;;6.15;;
65755;SDS011;69208;47.502;18.940;2023-08-17T03:13:33;9.63;;;6.62;;
65755;SDS011;69208;47.502;18.940;2023-08-17T03:14:36;8.30;;;6.50;;
65755;SDS011;69208;47.502;18.940;2023-08-17T03:15:39;8.75;;;6.75;;
65755;SDS011;69208;47.502;18.940;2023-08-17T03:16:42;10.45;;;6.87;;
65755;SDS011;69208;47.502;18.940;2023-08-17T03:17:45;9.68;;;6.53;;
65755;SDS011;69208;47.502;18.940;2023-08-17T03:18:48;7.25;;;6.50;;
65755;SDS011;69208;47.502;18.940;2023-08-17T03:19:51;11.90;;;6.35;;
65755;SDS011;69208;47.502;18.940;2023-08-17T03:20:54;10.00;;;6.32;;
65755;SDS011;69208;47.502;18.940;2023-08-17T03:21:57;9.40;;;6.70;;
65755;SDS011;69208;47.502;18.940;2023-08-17T03:23:00;10.95;;;7.03;;
65755;SDS011;69208;47.502;18.940;2023-08-17T03:24:03;13.50;;;6.78;;
65755;SDS011;69208;47.502;18.940;2023-08-17T03:25:07;9.38;;;6.50;;
65755;SDS011;69208;47.502;18.940;2023-08-17T03:26:10;8.73;;;6.65;;
65755;SDS011;69208;47.502;18.940;2023-08-17T03:27:14;9.52;;;6.82;;
65755;SDS011;69208;47.502;18.940;2023-08-17T03:28:17;10.15;;;6.57;;
65755;SDS011;69208;47.502;18.940;2023-08-17T03:29:20;12.88;;;6.37;;
65755;SDS011;69208;47.502;18.940;2023-08-17T03:30:23;11.55;;;7.07;;
65755;SDS011;69208;47.502;18.940;2023-08-17T03:31:25;9.20;;;6.32;;
65755;SDS011;69208;47.502;18.940;2023-08-17T03:32:29;10.90;;;6.22;;
65755;SDS011;69208;47.502;18.940;2023-08-17T03:33:31;11.43;;;6.37;;
65755;SDS011;69208;47.502;18.940;2023-08-17T03:34:34;11.63;;;6.53;;
65755;SDS011;69208;47.502;18.940;2023-08-17T03:35:37;13.48;;;6.87;;
65755;SDS011;69208;47.502;18.940;2023-08-17T03:36:40;8.63;;;6.70;;
65755;SDS011;69208;47.502;18.940;2023-08-17T03:37:43;13.23;;;6.20;;
65755;SDS011;69208;47.502;18.940;2023-08-17T03:38:47;12.23;;;6.87;;
65755;SDS011;69208;47.502;18.940;2023-08-17T03:39:50;9.88;;;6.45;;
65755;SDS011;69208;47.502;18.940;2023-08-17T03:40:54;10.18;;;7.00;;
65755;SDS011;69208;47.502;18.940;2023-08-17T03:41:57;9.73;;;7.25;;
65755;SDS011;69208;47.502;18.940;2023-08-17T03:43:00;14.93;;;7.37;;
65755;SDS011;69208;47.502;18.940;2023-08-17T03:44:03;8.38;;;6.37;;
65755;SDS011;69208;47.502;18.940;2023-08-17T03:45:08;9.32;;;6.55;;
65755;SDS011;69208;47.502;18.940;2023-08-17T03:46:11;10.57;;;6.80;;
65755;SDS011;69208;47.502;18.940;2023-08-17T03:47:14;10.50;;;6.55;;
65755;SDS011;69208;47.502;18.940;2023-08-17T03:48:17;9.55;;;6.65;;
65755;SDS011;69208;47.502;18.940;2023-08-17T03:49:20;10.35;;;6.62;;
65755;SDS011;69208;47.502;18.940;2023-08-17T03:50:25;12.25;;;6.75;;
65755;SDS011;69208;47.502;18.940;2023-08-17T03:51:30;9.35;;;6.53;;
65755;SDS011;69208;47.502;18.940;2023-08-17T03:52:33;8.45;;;6.57;;
65755;SDS011;69208;47.502;18.940;2023-08-17T03:53:36;8.85;;;7.05;;
65755;SDS011;69208;47.502;18.940;2023-08-17T03:54:39;10.50;;;6.85;;
65755;SDS011;69208;47.502;18.940;2023-08-17T03:55:48;8.07;;;7.00;;
65755;SDS011;69208;47.502;18.940;2023-08-17T03:56:52;10.68;;;6.82;;
65755;SDS011;69208;47.502;18.940;2023-08-17T03:57:55;8.07;;;6.53;;
65755;SDS011;69208;47.502;18.940;2023-08-17T03:58:58;9.48;;;7.18;;
65755;SDS011;69208;47.502;18.940;2023-08-17T04:00:01;10.38;;;6.72;;
65755;SDS011;69208;47.502;18.940;2023-08-17T04:01:04;9.35;;;6.75;;
65755;SDS011;69208;47.502;18.940;2023-08-17T04:02:09;11.57;;;7.50;;
65755;SDS011;69208;47.502;18.940;2023-08-17T04:03:12;14.50;;;7.03;;
65755;SDS011;69208;47.502;18.940;2023-08-17T04:04:15;10.60;;;6.68;;
65755;SDS011;69208;47.502;18.940;2023-08-17T04:05:18;9.95;;;7.07;;
65755;SDS011;69208;47.502;18.940;2023-08-17T04:06:20;11.23;;;7.25;;
65755;SDS011;69208;47.502;18.940;2023-08-17T04:07:24;9.63;;;6.32;;
65755;SDS011;69208;47.502;18.940;2023-08-17T04:08:27;8.80;;;7.03;;
65755;SDS011;69208;47.502;18.940;2023-08-17T04:09:30;11.15;;;7.35;;
65755;SDS011;69208;47.502;18.940;2023-08-17T04:10:36;9.55;;;6.57;;
65755;SDS011;69208;47.502;18.940;2023-08-17T04:11:39;9.48;;;7.35;;
65755;SDS011;69208;47.502;18.940;2023-08-17T04:12:42;12.23;;;7.05;;
65755;SDS011;69208;47.502;18.940;2023-08-17T04:13:45;9.27;;;6.72;;
65755;SDS011;69208;47.502;18.940;2023-08-17T04:14:48;11.20;;;6.90;;
65755;SDS011;69208;47.502;18.940;2023-08-17T04:15:52;13.13;;;7.12;;
65755;SDS011;69208;47.502;18.940;2023-08-17T04:16:55;9.00;;;6.50;;
65755;SDS011;69208;47.502;18.940;2023-08-17T04:18:00;8.98;;;6.57;;
65755;SDS011;69208;47.502;18.940;2023-08-17T04:19:03;7.50;;;6.20;;
65755;SDS011;69208;47.502;18.940;2023-08-17T04:20:06;10.95;;;6.68;;
65755;SDS011;69208;47.502;18.940;2023-08-17T04:21:10;10.50;;;6.72;;
65755;SDS011;69208;47.502;18.940;2023-08-17T04:22:13;8.20;;;6.40;;
65755;SDS011;69208;47.502;18.940;2023-08-17T04:23:16;10.45;;;6.05;;
65755;SDS011;69208;47.502;18.940;2023-08-17T04:24:18;9.43;;;6.65;;
65755;SDS011;69208;47.502;18.940;2023-08-17T04:25:21;11.73;;;6.43;;
65755;SDS011;69208;47.502;18.940;2023-08-17T04:26:24;10.90;;;6.72;;
65755;SDS011;69208;47.502;18.940;2023-08-17T04:27:27;9.38;;;6.90;;
65755;SDS011;69208;47.502;18.940;2023-08-17T04:28:30;9.95;;;7.03;;
65755;SDS011;69208;47.502;18.940;2023-08-17T04:29:33;9.00;;;6.78;;
65755;SDS011;69208;47.502;18.940;2023-08-17T04:30:37;8.90;;;6.40;;
65755;SDS011;69208;47.502;18.940;2023-08-17T04:31:40;11.40;;;7.12;;
65755;SDS011;69208;47.502;18.940;2023-08-17T04:32:44;10.30;;;7.00;;
65755;SDS011;69208;47.502;18.940;2023-08-17T04:33:47;10.02;;;6.53;;
65755;SDS011;69208;47.502;18.940;2023-08-17T04:34:50;11.57;;;6.78;;
65755;SDS011;69208;47.502;18.940;2023-08-17T04:35:56;9.43;;;6.35;;
65755;SDS011;69208;47.502;18.940;2023-08-17T04:36:58;8.48;;;6.82;;
65755;SDS011;69208;47.502;18.940;2023-08-17T04:38:01;8.35;;;6.25;;
65755;SDS011;69208;47.502;18.940;2023-08-17T04:39:05;7.25;;;6.03;;
65755;SDS011;69208;47.502;18.940;2023-08-17T04:40:08;14.02;;;6.32;;
65755;SDS011;69208;47.502;18.940;2023-08-17T04:41:12;30.90;;;6.25;;
65755;SDS011;69208;47.502;18.940;2023-08-17T04:42:15;8.80;;;5.55;;
65755;SDS011;69208;47.502;18.940;2023-08-17T04:43:18;9.48;;;6.15;;
65755;SDS011;69208;47.502;18.940;2023-08-17T04:44:21;8.02;;;5.78;;
65755;SDS011;69208;47.502;18.940;2023-08-17T04:45:24;12.05;;;5.60;;
65755;SDS011;69208;47.502;18.940;2023-08-17T04:46:27;9.48;;;5.75;;
65755;SDS011;69208;47.502;18.940;2023-08-17T04:47:30;9.57;;;5.60;;
65755;SDS011;69208;47.502;18.940;2023-08-17T04:48:33;11.32;;;6.18;;
65755;SDS011;69208;47.502;18.940;2023-08-17T04:49:36;8.07;;;5.68;;
65755;SDS011;69208;47.502;18.940;2023-08-17T04:50:39;7.25;;;5.62;;
65755;SDS011;69208;47.502;18.940;2023-08-17T04:51:42;8.07;;;5.65;;
65755;SDS011;69208;47.502;18.940;2023-08-17T04:52:45;11.15;;;5.97;;
65755;SDS011;69208;47.502;18.940;2023-08-17T04:53:48;8.93;;;5.93;;
65755;SDS011;69208;47.502;18.940;2023-08-17T04:54:51;6.78;;;5.35;;
65755;SDS011;69208;47.502;18.940;2023-08-17T04:55:54;9.82;;;5.57;;
65755;SDS011;69208;47.502;18.940;2023-08-17T04:56:57;10.88;;;5.65;;
65755;SDS011;69208;47.502;18.940;2023-08-17T04:57:59;11.95;;;5.60;;
65755;SDS011;69208;47.502;18.940;2023-08-17T04:59:02;10.02;;;6.00;;
65755;SDS011;69208;47.502;18.940;2023-08-17T05:00:06;9.18;;;5.82;;
65755;SDS011;69208;47.502;18.940;2023-08-17T05:01:12;7.43;;;5.65;;
65755;SDS011;69208;47.502;18.940;2023-08-17T05:02:15;9.43;;;5.80;;
65755;SDS011;69208;47.502;18.940;2023-08-17T05:03:18;7.75;;;5.82;;
65755;SDS011;69208;47.502;18.940;2023-08-17T05:04:35;13.52;;;5.82;;
65755;SDS011;69208;47.502;18.940;2023-08-17T05:05:38;9.10;;;5.95;;
65755;SDS011;69208;47.502;18.940;2023-08-17T05:06:41;8.02;;;5.53;;
65755;SDS011;69208;47.502;18.940;2023-08-17T05:07:45;8.50;;;5.80;;
65755;SDS011;69208;47.502;18.940;2023-08-17T05:08:48;8.13;;;5.87;;
65755;SDS011;69208;47.502;18.940;2023-08-17T05:09:50;7.90;;;5.30;;
65755;SDS011;69208;47.502;18.940;2023-08-17T05:10:53;8.48;;;5.70;;
65755;SDS011;69208;47.502;18.940;2023-08-17T05:11:57;7.93;;;6.15;;
65755;SDS011;69208;47.502;18.940;2023-08-17T05:13:00;8.50;;;6.03;;
65755;SDS011;69208;47.502;18.940;2023-08-17T05:14:04;9.80;;;6.03;;
65755;SDS011;69208;47.502;18.940;2023-08-17T05:15:07;8.18;;;5.93;;
65755;SDS011;69208;47.502;18.940;2023-08-17T05:16:12;9.27;;;5.95;;
65755;SDS011;69208;47.502;18.940;2023-08-17T05:17:15;8.07;;;5.87;;
65755;SDS011;69208;47.502;18.940;2023-08-17T05:18:18;7.28;;;5.87;;
65755;SDS011;69208;47.502;18.940;2023-08-17T05:19:21;10.90;;;6.00;;
65755;SDS011;69208;47.502;18.940;2023-08-17T05:20:24;9.48;;;6.12;;
65755;SDS011;69208;47.502;18.940;2023-08-17T05:21:28;21.92;;;5.78;;
65755;SDS011;69208;47.502;18.940;2023-08-17T05:22:32;10.35;;;5.95;;
65755;SDS011;69208;47.502;18.940;2023-08-17T05:23:35;10.68;;;6.53;;
65755;SDS011;69208;47.502;18.940;2023-08-17T05:24:38;8.60;;;6.10;;
65755;SDS011;69208;47.502;18.940;2023-08-17T05:25:41;9.73;;;6.00;;
65755;SDS011;69208;47.502;18.940;2023-08-17T05:26:44;9.18;;;6.25;;
65755;SDS011;69208;47.502;18.940;2023-08-17T05:27:47;10.57;;;6.60;;
65755;SDS011;69208;47.502;18.940;2023-08-17T05:28:51;6.87;;;5.72;;
65755;SDS011;69208;47.502;18.940;2023-08-17T05:29:54;10.27;;;6.28;;
65755;SDS011;69208;47.502;18.940;2023-08-17T05:31:03;10.55;;;6.07;;
65755;SDS011;69208;47.502;18.940;2023-08-17T05:32:09;9.07;;;6.43;;
65755;SDS011;69208;47.502;18.940;2023-08-17T05:33:12;8.55;;;6.22;;
65755;SDS011;69208;47.502;18.940;2023-08-17T05:34:15;13.68;;;6.43;;
65755;SDS011;69208;47.502;18.940;2023-08-17T05:35:18;8.68;;;5.95;;
65755;SDS011;69208;47.502;18.940;2023-08-17T05:36:21;8.55;;;6.03;;
65755;SDS011;69208;47.502;18.940;2023-08-17T05:37:24;8.00;;;6.00;;
65755;SDS011;69208;47.502;18.940;2023-08-17T05:38:27;10.85;;;6.10;;
65755;SDS011;69208;47.502;18.940;2023-08-17T05:39:30;9.55;;;6.50;;
65755;SDS011;69208;47.502;18.940;2023-08-17T05:40:37;11.35;;;6.18;;
65755;SDS011;69208;47.502;18.940;2023-08-17T05:41:40;8.70;;;6.32;;
65755;SDS011;69208;47.502;18.940;2023-08-17T05:42:42;12.57;;;6.32;;
65755;SDS011;69208;47.502;18.940;2023-08-17T05:43:45;10.05;;;6.50;;
65755;SDS011;69208;47.502;18.940;2023-08-17T05:44:48;10.32;;;6.25;;
65755;SDS011;69208;47.502;18.940;2023-08-17T05:45:51;9.38;;;6.50;;
65755;SDS011;69208;47.502;18.940;2023-08-17T05:46:54;12.63;;;6.00;;
65755;SDS011;69208;47.502;18.940;2023-08-17T05:47:57;10.30;;;6.20;;
65755;SDS011;69208;47.502;18.940;2023-08-17T05:49:00;9.82;;;6.05;;
65755;SDS011;69208;47.502;18.940;2023-08-17T05:50:04;7.70;;;5.90;;
65755;SDS011;69208;47.502;18.940;2023-08-17T05:51:08;8.73;;;6.37;;
65755;SDS011;69208;47.502;18.940;2023-08-17T05:52:11;10.40;;;6.07;;
65755;SDS011;69208;47.502;18.940;2023-08-17T05:53:14;6.97;;;5.68;;
65755;SDS011;69208;47.502;18.940;2023-08-17T05:54:17;11.50;;;6.22;;
65755;SDS011;69208;47.502;18.940;2023-08-17T05:55:20;10.90;;;6.00;;
65755;SDS011;69208;47.502;18.940;2023-08-17T05:56:23;11.05;;;6.53;;
65755;SDS011;69208;47.502;18.940;2023-08-17T05:57:26;7.43;;;6.37;;
65755;SDS011;69208;47.502;18.940;2023-08-17T05:58:30;10.43;;;6.50;;
65755;SDS011;69208;47.502;18.940;2023-08-17T05:59:33;10.70;;;6.10;;
65755;SDS011;69208;47.502;18.940;2023-08-17T06:00:36;8.15;;;6.30;;
65755;SDS011;69208;47.502;18.940;2023-08-17T06:01:40;6.65;;;5.90;;
65755;SDS011;69208;47.502;18.940;2023-08-17T06:02:43;10.00;;;6.40;;
65755;SDS011;69208;47.502;18.940;2023-08-17T06:03:46;8.02;;;6.87;;
65755;SDS011;69208;47.502;18.940;2023-08-17T06:04:49;12.13;;;7.12;;
65755;SDS011;69208;47.502;18.940;2023-08-17T06:05:52;9.65;;;6.43;;
65755;SDS011;69208;47.502;18.940;2023-08-17T06:06:55;10.07;;;6.45;;
65755;SDS011;69208;47.502;18.940;2023-08-17T06:07:58;10.95;;;7.15;;
65755;SDS011;69208;47.502;18.940;2023-08-17T06:09:01;8.57;;;6.57;;
65755;SDS011;69208;47.502;18.940;2023-08-17T06:10:04;10.60;;;6.78;;
65755;SDS011;69208;47.502;18.940;2023-08-17T06:11:08;8.82;;;6.90;;
65755;SDS011;69208;47.502;18.940;2023-08-17T06:12:11;7.60;;;6.15;;
65755;SDS011;69208;47.502;18.940;2023-08-17T06:13:14;8.65;;;6.50;;
65755;SDS011;69208;47.502;18.940;2023-08-17T06:14:18;10.20;;;7.00;;
65755;SDS011;69208;47.502;18.940;2023-08-17T06:15:21;10.20;;;6.30;;
65755;SDS011;69208;47.502;18.940;2023-08-17T06:16:25;11.32;;;6.72;;
65755;SDS011;69208;47.502;18.940;2023-08-17T06:17:28;9.60;;;7.05;;
65755;SDS011;69208;47.502;18.940;2023-08-17T06:18:31;10.35;;;6.78;;
65755;SDS011;69208;47.502;18.940;2023-08-17T06:19:34;10.82;;;7.20;;